Time;durP1;ratioP1;P1;durP2;ratioP2;P2;SDS_P1;SDS_P2;PMS_P1;PMS_P2;Temp;Humidity;BMP_temperature;BMP_pressure;BME280_temperature;BME280_humidity;BME280_pressure;Samples;Min_cycle;Max_cycle;Signal;HPM_P1;HPM_P2
2022/05/11 00:00:30;;;;;;;4.80;4.38;;;;;;;;;;5072360;28;20047;-80
2022/05/11 00:02:55;;;;;;;8.30;5.30;;;;;;;;;;5070852;28;20048;-80
2022/05/11 00:05:21;;;;;;;5.57;4.30;;;;;;;;;;5072151;28;20024;-79
2022/05/11 00:07:48;;;;;;;5.13;4.72;;;;;;;;;;5071946;28;20023;-80
2022/05/11 00:10:13;;;;;;;9.30;4.70;;;;;;;;;;5072157;28;20059;-80
2022/05/11 00:12:43;;;;;;;5.75;5.13;;;;;;;;;;5072151;28;20056;-80
2022/05/11 00:15:09;;;;;;;5.87;5.00;;;;;;;;;;5072033;28;20396;-80
2022/05/11 00:17:35;;;;;;;5.68;5.13;;;;;;;;;;5070618;28;20373;-80
2022/05/11 00:20:01;;;;;;;5.47;4.85;;;;;;;;;;5070605;28;20052;-80
2022/05/11 00:22:26;;;;;;;5.78;5.20;;;;;;;;;;5070466;28;20047;-80
2022/05/11 00:24:51;;;;;;;7.60;4.75;;;;;;;;;;5072006;28;20031;-79
2022/05/11 00:27:17;;;;;;;7.32;4.97;;;;;;;;;;5070168;28;20490;-80
2022/05/11 00:29:42;;;;;;;5.30;4.80;;;;;;;;;;5070531;28;20443;-79
2022/05/11 00:32:08;;;;;;;5.50;4.85;;;;;;;;;;5070669;28;20028;-80
2022/05/11 00:34:33;;;;;;;4.97;4.47;;;;;;;;;;5071900;28;20403;-80
2022/05/11 00:36:59;;;;;;;5.32;4.70;;;;;;;;;;5070604;28;20020;-80
2022/05/11 00:39:25;;;;;;;6.22;4.80;;;;;;;;;;5070425;28;20039;-80
2022/05/11 00:41:51;;;;;;;8.32;5.18;;;;;;;;;;5071567;28;20441;-80
2022/05/11 00:44:17;;;;;;;5.38;4.88;;;;;;;;;;5071186;28;20099;-80
2022/05/11 00:46:55;;;;;;;6.50;5.32;;;;;;;;;;5071253;28;20155;-80
2022/05/11 00:49:35;;;;;;;6.05;5.45;;;;;;;;;;5071211;28;20479;-79
2022/05/11 00:52:02;;;;;;;7.47;5.60;;;;;;;;;;5070115;28;20025;-80
2022/05/11 00:54:29;;;;;;;5.90;5.13;;;;;;;;;;5071105;28;20274;-80
2022/05/11 00:56:57;;;;;;;6.65;5.55;;;;;;;;;;5052979;28;20454;-80
2022/05/11 00:59:25;;;;;;;5.20;4.70;;;;;;;;;;5070740;28;20557;-80
2022/05/11 01:01:51;;;;;;;6.95;4.53;;;;;;;;;;5070836;28;20391;-80
2022/05/11 01:04:18;;;;;;;5.47;4.97;;;;;;;;;;5070913;28;20458;-80
2022/05/11 01:06:44;;;;;;;11.40;5.53;;;;;;;;;;5070744;28;20020;-80
2022/05/11 01:09:10;;;;;;;5.82;5.25;;;;;;;;;;5069491;28;20422;-80
2022/05/11 01:11:38;;;;;;;7.93;4.70;;;;;;;;;;5069434;28;20082;-80
2022/05/11 01:14:05;;;;;;;5.30;4.82;;;;;;;;;;5069326;28;20048;-80
2022/05/11 01:16:30;;;;;;;8.30;5.07;;;;;;;;;;5070649;28;20411;-80
2022/05/11 01:18:57;;;;;;;5.82;5.22;;;;;;;;;;5070489;28;20067;-80
2022/05/11 01:21:24;;;;;;;6.68;4.53;;;;;;;;;;5070479;28;20048;-79
2022/05/11 01:23:57;;;;;;;5.97;4.38;;;;;;;;;;5070460;28;20004;-80
2022/05/11 01:26:22;;;;;;;6.03;4.75;;;;;;;;;;5069078;28;20098;-80
2022/05/11 01:28:49;;;;;;;10.85;5.22;;;;;;;;;;5069004;28;20479;-80
2022/05/11 01:31:16;;;;;;;5.72;5.22;;;;;;;;;;5068962;28;20024;-80
2022/05/11 01:33:47;;;;;;;5.53;4.72;;;;;;;;;;5070314;28;20017;-80
2022/05/11 01:36:30;;;;;;;6.20;5.57;;;;;;;;;;5070230;28;20017;-80
2022/05/11 01:38:56;;;;;;;5.93;5.32;;;;;;;;;;5070095;28;20123;-80
2022/05/11 01:41:26;;;;;;;7.65;5.53;;;;;;;;;;5070111;28;20022;-80
2022/05/11 01:43:52;;;;;;;;;;;;;;;;;;5069330;28;20036;-80
2022/05/11 01:46:18;;;;;;;5.83;5.33;;;;;;;;;;5070120;28;19904;-80
2022/05/11 01:48:43;;;;;;;7.28;5.22;;;;;;;;;;5069992;28;20262;-80
2022/05/11 01:51:10;;;;;;;5.55;5.03;;;;;;;;;;5069873;28;20076;-80
2022/05/11 01:53:36;;;;;;;6.95;5.05;;;;;;;;;;5069884;28;20499;-81
2022/05/11 01:56:01;;;;;;;5.78;5.28;;;;;;;;;;5069881;28;20017;-80
2022/05/11 01:58:26;;;;;;;8.85;6.18;;;;;;;;;;5069584;28;20870;-81
2022/05/11 02:00:52;;;;;;;6.82;5.78;;;;;;;;;;5069745;28;20023;-80
2022/05/11 02:03:18;;;;;;;6.88;5.68;;;;;;;;;;5069693;28;20020;-81
2022/05/11 02:08:29;;;;;;;5.88;5.38;;;;;;;;;;5069662;28;20048;-80
2022/05/11 02:10:54;;;;;;;6.03;5.22;;;;;;;;;;5069539;28;20490;-80
2022/05/11 02:13:21;;;;;;;11.65;6.07;;;;;;;;;;5068162;28;20233;-81
2022/05/11 02:15:48;;;;;;;7.20;5.35;;;;;;;;;;5068123;28;20025;-80
2022/05/11 02:18:13;;;;;;;7.03;6.13;;;;;;;;;;5069319;28;20095;-81
2022/05/11 02:20:39;;;;;;;7.43;6.25;;;;;;;;;;5069484;28;20024;-81
2022/05/11 02:23:04;;;;;;;11.15;6.30;;;;;;;;;;5069368;28;20020;-81
2022/05/11 02:25:29;;;;;;;8.20;5.93;;;;;;;;;;5069350;28;20024;-81
2022/05/11 02:27:55;;;;;;;6.97;6.07;;;;;;;;;;5069366;28;20458;-81
2022/05/11 02:30:23;;;;;;;8.88;6.50;;;;;;;;;;5069186;28;20043;-80
2022/05/11 02:32:48;;;;;;;6.30;5.75;;;;;;;;;;5069272;28;20055;-80
2022/05/11 02:35:14;;;;;;;7.20;5.53;;;;;;;;;;5067897;28;20515;-81
2022/05/11 02:37:41;;;;;;;6.10;5.03;;;;;;;;;;5067927;28;20035;-80
2022/05/11 02:40:07;;;;;;;6.53;5.40;;;;;;;;;;5069193;28;20407;-81
2022/05/11 02:42:32;;;;;;;6.95;5.55;;;;;;;;;;5069388;28;20031;-81
2022/05/11 02:44:57;;;;;;;7.05;5.53;;;;;;;;;;5069083;28;20082;-81
2022/05/11 02:47:23;;;;;;;6.07;5.50;;;;;;;;;;5051055;28;20056;-80
2022/05/11 02:49:48;;;;;;;5.35;4.95;;;;;;;;;;5069114;28;20043;-80
2022/05/11 02:52:14;;;;;;;6.32;5.72;;;;;;;;;;5069006;28;20104;-80
2022/05/11 02:54:40;;;;;;;6.38;5.57;;;;;;;;;;5068945;28;20103;-80
2022/05/11 02:57:05;;;;;;;7.43;5.88;;;;;;;;;;5069143;28;20017;-80
2022/05/11 02:59:31;;;;;;;5.70;5.20;;;;;;;;;;5068776;28;20044;-80
2022/05/11 03:01:56;;;;;;;7.32;4.78;;;;;;;;;;5068706;28;20013;-80
2022/05/11 03:04:22;;;;;;;9.73;5.03;;;;;;;;;;5069001;28;20113;-80
2022/05/11 03:06:47;;;;;;;5.88;5.28;;;;;;;;;;5069065;28;20020;-81
2022/05/11 03:09:14;;;;;;;7.78;5.50;;;;;;;;;;5069047;28;20024;-81
2022/05/11 03:11:40;;;;;;;6.38;5.78;;;;;;;;;;5068857;28;20016;-80
2022/05/11 03:14:06;;;;;;;6.22;4.88;;;;;;;;;;5067490;28;20101;-81
2022/05/11 03:16:31;;;;;;;5.72;5.22;;;;;;;;;;5050847;28;20044;-80
2022/05/11 03:18:59;;;;;;;7.90;4.78;;;;;;;;;;5050730;28;20024;-80
2022/05/11 03:21:25;;;;;;;5.85;5.30;;;;;;;;;;5067565;28;20507;-80
2022/05/11 03:23:50;;;;;;;5.95;4.90;;;;;;;;;;5068818;28;20021;-81
2022/05/11 03:26:15;;;;;;;7.15;5.65;;;;;;;;;;5067554;28;20111;-81
2022/05/11 03:28:41;;;;;;;5.82;5.25;;;;;;;;;;5067388;28;20116;-81
2022/05/11 03:31:06;;;;;;;5.60;4.95;;;;;;;;;;5067384;28;20407;-81
2022/05/11 03:36:15;;;;;;;5.90;5.30;;;;;;;;;;5068744;28;20027;-81
2022/05/11 03:38:41;;;;;;;5.65;5.15;;;;;;;;;;5068531;28;20036;-81
2022/05/11 03:41:06;;;;;;;6.40;5.80;;;;;;;;;;5068713;28;20035;-81
2022/05/11 03:43:32;;;;;;;7.03;5.95;;;;;;;;;;5068682;28;20444;-81
2022/05/11 03:45:59;;;;;;;9.05;6.45;;;;;;;;;;5068655;28;20491;-80
2022/05/11 03:48:25;;;;;;;7.68;6.90;;;;;;;;;;5068597;28;20176;-80
2022/05/11 03:50:50;;;;;;;8.43;5.65;;;;;;;;;;5067204;28;20111;-80
2022/05/11 03:53:16;;;;;;;5.28;4.82;;;;;;;;;;5067321;28;20410;-80
2022/05/11 03:55:41;;;;;;;5.68;5.07;;;;;;;;;;5068433;28;20070;-80
2022/05/11 03:58:07;;;;;;;7.75;5.55;;;;;;;;;;5066950;28;20048;-80
2022/05/11 04:00:32;;;;;;;5.57;5.07;;;;;;;;;;5068559;28;20028;-80
2022/05/11 04:02:58;;;;;;;10.00;5.30;;;;;;;;;;5068521;28;20024;-80
2022/05/11 04:05:24;;;;;;;9.48;5.90;;;;;;;;;;5068434;28;20029;-80
2022/05/11 04:07:49;;;;;;;7.18;6.22;;;;;;;;;;5068259;28;20088;-81
2022/05/11 04:10:16;;;;;;;6.95;5.63;;;;;;;;;;5068579;28;20021;-80
2022/05/11 04:12:42;;;;;;;7.53;6.75;;;;;;;;;;5067164;28;20606;-80
2022/05/11 04:15:07;;;;;;;11.75;8.52;;;;;;;;;;5069615;28;20115;-81
2022/05/11 04:17:33;;;;;;;11.90;9.75;;;;;;;;;;5070640;28;20012;-80
2022/05/11 04:19:58;;;;;;;15.77;9.63;;;;;;;;;;5071778;28;20122;-80
2022/05/11 04:22:24;;;;;;;7.63;6.93;;;;;;;;;;5071654;28;20559;-80
2022/05/11 04:24:49;;;;;;;9.88;6.13;;;;;;;;;;5071826;28;20019;-80
2022/05/11 04:27:15;;;;;;;10.35;7.07;;;;;;;;;;5071957;28;20017;-80
2022/05/11 04:29:40;;;;;;;7.75;6.47;;;;;;;;;;5071756;28;20103;-80
2022/05/11 04:32:07;;;;;;;8.70;6.88;;;;;;;;;;5053587;28;20415;-80
2022/05/11 04:34:33;;;;;;;8.25;7.13;;;;;;;;;;5071733;28;20556;-80
2022/05/11 04:36:58;;;;;;;7.40;6.65;;;;;;;;;;5071653;28;20016;-80
2022/05/11 04:39:24;;;;;;;7.78;7.07;;;;;;;;;;5070275;28;20127;-80
2022/05/11 04:41:49;;;;;;;10.55;7.05;;;;;;;;;;5070487;28;20484;-80
2022/05/11 04:44:14;;;;;;;8.20;7.25;;;;;;;;;;5070999;28;20540;-80
2022/05/11 04:46:40;;;;;;;8.68;7.00;;;;;;;;;;5071446;28;20085;-80
2022/05/11 04:49:19;;;;;;;8.07;6.43;;;;;;;;;;5070148;28;20036;-80
2022/05/11 04:51:45;;;;;;;8.70;6.95;;;;;;;;;;5070041;28;20067;-80
2022/05/11 04:54:11;;;;;;;7.65;6.93;;;;;;;;;;5071324;28;20081;-81
2022/05/11 04:56:38;;;;;;;11.48;7.30;;;;;;;;;;5071263;28;20021;-80
2022/05/11 04:59:04;;;;;;;7.93;7.22;;;;;;;;;;5069682;28;20087;-80
2022/05/11 05:01:29;;;;;;;8.55;7.65;;;;;;;;;;5070056;28;20156;-80
2022/05/11 05:03:54;;;;;;;9.25;8.25;;;;;;;;;;5071137;28;20028;-80
2022/05/11 05:06:20;;;;;;;9.88;7.68;;;;;;;;;;5071413;28;20059;-80
2022/05/11 05:08:45;;;;;;;11.88;8.85;;;;;;;;;;5071358;28;20514;-80
2022/05/11 05:11:10;;;;;;;11.38;8.32;;;;;;;;;;5069903;28;20158;-80
2022/05/11 05:13:36;;;;;;;9.48;7.85;;;;;;;;;;5070889;28;20048;-80
2022/05/11 05:16:01;;;;;;;8.57;7.78;;;;;;;;;;5069355;28;20109;-80
2022/05/11 05:18:28;;;;;;;9.10;8.05;;;;;;;;;;5070510;28;20025;-81
2022/05/11 05:20:55;;;;;;;10.18;8.43;;;;;;;;;;5069212;28;20085;-80
2022/05/11 05:23:21;;;;;;;8.52;7.70;;;;;;;;;;5070545;28;20012;-80
2022/05/11 05:25:46;;;;;;;10.13;8.13;;;;;;;;;;5070054;28;20031;-81
2022/05/11 05:31:06;;;;;;;12.98;9.35;;;;;;;;;;5070672;28;20039;-81
2022/05/11 05:33:35;;;;;;;9.63;8.75;;;;;;;;;;5070424;28;20044;-80
2022/05/11 05:36:01;;;;;;;14.60;9.50;;;;;;;;;;5070283;28;20528;-80
2022/05/11 05:38:27;;;;;;;13.38;9.82;;;;;;;;;;5070076;28;20033;-80
2022/05/11 05:40:54;;;;;;;12.80;9.85;;;;;;;;;;5070170;28;20070;-81
2022/05/11 05:43:19;;;;;;;11.35;8.82;;;;;;;;;;5068660;28;20009;-81
2022/05/11 05:45:52;;;;;;;12.95;8.40;;;;;;;;;;5068788;28;20027;-80
2022/05/11 05:48:21;;;;;;;9.75;7.40;;;;;;;;;;5069968;28;20017;-81
2022/05/11 05:50:47;;;;;;;8.75;7.88;;;;;;;;;;5070058;28;20032;-79
2022/05/11 05:53:14;;;;;;;7.93;6.78;;;;;;;;;;5068635;28;20058;-81
2022/05/11 05:55:39;;;;;;;6.63;5.93;;;;;;;;;;5068578;28;20535;-81
2022/05/11 05:58:06;;;;;;;7.43;6.03;;;;;;;;;;5069621;28;20040;-81
2022/05/11 06:00:32;;;;;;;6.60;5.82;;;;;;;;;;5068539;28;20063;-81
2022/05/11 06:02:57;;;;;;;13.23;5.63;;;;;;;;;;5069689;28;20066;-81
2022/05/11 06:05:23;;;;;;;5.88;5.28;;;;;;;;;;5068414;28;20029;-81
2022/05/11 06:07:48;;;;;;;8.50;5.22;;;;;;;;;;5068317;28;20031;-81
2022/05/11 06:10:13;;;;;;;4.38;3.97;;;;;;;;;;5069574;28;20016;-81
2022/05/11 06:12:39;;;;;;;5.40;4.70;;;;;;;;;;5069551;28;20176;-81
2022/05/11 06:15:05;;;;;;;9.32;4.60;;;;;;;;;;5069392;28;20376;-80
2022/05/11 06:17:32;;;;;;;6.13;4.45;;;;;;;;;;5069507;28;20035;-81
2022/05/11 06:19:58;;;;;;;5.05;4.55;;;;;;;;;;5069322;28;20119;-81
2022/05/11 06:22:25;;;;;;;8.27;4.60;;;;;;;;;;5069397;28;20116;-81
2022/05/11 06:24:50;;;;;;;4.90;4.00;;;;;;;;;;5069407;28;20457;-80
2022/05/11 06:27:17;;;;;;;7.25;4.22;;;;;;;;;;5069262;28;20059;-81
2022/05/11 06:29:43;;;;;;;4.63;3.90;;;;;;;;;;5069287;28;20020;-81
2022/05/11 06:32:08;;;;;;;5.00;4.00;;;;;;;;;;5069163;28;20021;-81
2022/05/11 06:34:33;;;;;;;5.38;4.25;;;;;;;;;;5069238;28;20028;-81
2022/05/11 06:36:59;;;;;;;4.32;3.90;;;;;;;;;;5067067;28;20027;-80
2022/05/11 06:39:24;;;;;;;4.35;3.65;;;;;;;;;;5067714;28;20127;-80
2022/05/11 06:41:50;;;;;;;4.28;3.22;;;;;;;;;;5069181;28;20020;-81
2022/05/11 06:44:15;;;;;;;9.48;4.07;;;;;;;;;;5067789;28;20047;-81
2022/05/11 06:46:41;;;;;;;4.68;3.80;;;;;;;;;;5069155;28;20017;-81
2022/05/11 06:49:06;;;;;;;5.88;3.95;;;;;;;;;;5069079;28;20074;-80
2022/05/11 06:51:31;;;;;;;4.25;3.83;;;;;;;;;;5067671;28;20020;-81
2022/05/11 06:59:26;;;;;;;4.90;3.80;;;;;;;;;;5068721;28;20060;-82
2022/05/11 07:01:52;;;;;;;5.75;3.55;;;;;;;;;;5068886;28;20023;-81
2022/05/11 07:04:18;;;;;;;4.78;3.45;;;;;;;;;;5067545;28;20032;-82
2022/05/11 07:06:44;;;;;;;4.18;3.67;;;;;;;;;;5068843;28;20506;-82
2022/05/11 07:09:09;;;;;;;4.30;3.25;;;;;;;;;;5068956;28;20012;-80
2022/05/11 07:14:18;;;;;;;5.88;3.78;;;;;;;;;;5068165;28;20048;-81
2022/05/11 07:16:44;;;;;;;6.00;3.58;;;;;;;;;;5068669;28;20431;-81
2022/05/11 07:19:09;;;;;;;3.92;3.45;;;;;;;;;;5067324;28;20040;-81
2022/05/11 07:21:35;;;;;;;6.32;3.80;;;;;;;;;;5067532;28;20467;-81
2022/05/11 07:24:00;;;;;;;4.00;3.13;;;;;;;;;;5068746;28;20532;-82
2022/05/11 07:26:25;;;;;;;4.32;3.30;;;;;;;;;;5068702;28;20520;-82
2022/05/11 07:28:51;;;;;;;6.65;3.25;;;;;;;;;;5067324;28;20029;-82
2022/05/11 07:31:16;;;;;;;8.02;3.35;;;;;;;;;;5068657;28;20028;-81
2022/05/11 07:33:43;;;;;;;3.75;3.45;;;;;;;;;;5068726;28;20024;-81
2022/05/11 07:36:08;;;;;;;5.95;3.97;;;;;;;;;;5067333;28;20028;-81
2022/05/11 07:38:38;;;;;;;4.30;2.72;;;;;;;;;;5068499;28;20495;-81
2022/05/11 07:41:04;;;;;;;5.95;3.75;;;;;;;;;;5067297;28;20028;-82
2022/05/11 07:43:30;;;;;;;3.63;3.33;;;;;;;;;;5068423;28;20545;-80
2022/05/11 07:45:55;;;;;;;4.40;3.35;;;;;;;;;;5067232;28;20067;-81
2022/05/11 07:48:20;;;;;;;5.45;3.35;;;;;;;;;;5069987;28;20023;-82
2022/05/11 07:50:46;;;;;;;5.07;3.65;;;;;;;;;;5072266;28;20062;-82
2022/05/11 07:53:11;;;;;;;5.15;3.85;;;;;;;;;;5070902;28;21087;-81
2022/05/11 07:55:36;;;;;;;5.03;3.55;;;;;;;;;;5072276;28;20030;-81
2022/05/11 08:00:46;;;;;;;5.35;3.45;;;;;;;;;;5072059;28;20040;-82
2022/05/11 08:03:11;;;;;;;6.93;3.78;;;;;;;;;;5072059;28;20016;-80
2022/05/11 08:05:38;;;;;;;4.55;3.90;;;;;;;;;;5071932;28;20090;-83
2022/05/11 08:08:05;;;;;;;8.93;4.43;;;;;;;;;;5071950;28;20016;-80
2022/05/11 08:10:41;;;;;;;3.78;3.47;;;;;;;;;;5071802;28;20099;-82
2022/05/11 08:13:07;;;;;;;10.38;3.97;;;;;;;;;;5071831;28;20490;-81
2022/05/11 08:15:34;;;;;;;5.00;3.30;;;;;;;;;;5071794;28;20023;-81
2022/05/11 08:18:00;;;;;;;4.00;3.45;;;;;;;;;;5070498;28;20044;-81
2022/05/11 08:20:28;;;;;;;4.35;3.60;;;;;;;;;;5071665;28;20032;-80
2022/05/11 08:22:54;;;;;;;4.47;4.00;;;;;;;;;;5071614;28;20025;-81
2022/05/11 08:25:20;;;;;;;4.20;3.15;;;;;;;;;;5070346;28;20078;-81
2022/05/11 08:27:46;;;;;;;6.45;3.90;;;;;;;;;;5071642;28;20052;-80
2022/05/11 08:35:41;;;;;;;4.00;3.55;;;;;;;;;;5071797;28;20113;-80
2022/05/11 08:38:06;;;;;;;6.68;3.75;;;;;;;;;;5070074;28;20060;-80
2022/05/11 08:40:52;;;;;;;5.82;3.08;;;;;;;;;;5071274;28;20036;-81
2022/05/11 08:43:18;;;;;;;4.32;3.15;;;;;;;;;;5069812;28;20116;-81
2022/05/11 08:45:46;;;;;;;4.93;3.92;;;;;;;;;;5069938;28;20120;-80
2022/05/11 08:48:17;;;;;;;3.35;3.05;;;;;;;;;;5071314;28;20114;-80
2022/05/11 08:50:43;;;;;;;7.53;3.15;;;;;;;;;;5069910;28;20028;-80
2022/05/11 08:53:29;;;;;;;4.13;3.35;;;;;;;;;;5071200;28;20103;-81
2022/05/11 08:55:55;;;;;;;5.60;3.00;;;;;;;;;;5065686;28;20032;-81
2022/05/11 08:58:23;;;;;;;4.63;3.47;;;;;;;;;;5052738;28;20064;-82
2022/05/11 09:00:49;;;;;;;3.17;2.88;;;;;;;;;;5070307;28;20024;-83
2022/05/11 09:03:34;;;;;;;4.07;3.15;;;;;;;;;;5069733;28;20029;-85
2022/05/11 09:06:00;;;;;;;5.25;3.50;;;;;;;;;;5069698;28;20024;-81
2022/05/11 09:08:26;;;;;;;4.57;3.25;;;;;;;;;;5070827;28;20020;-81
2022/05/11 09:10:51;;;;;;;4.93;3.25;;;;;;;;;;5070833;28;20032;-80
2022/05/11 09:13:20;;;;;;;5.03;3.40;;;;;;;;;;5070835;28;20024;-85
2022/05/11 09:15:53;;;;;;;6.03;2.75;;;;;;;;;;5070738;28;20021;-80
2022/05/11 09:18:18;;;;;;;5.55;2.85;;;;;;;;;;5070620;28;20016;-81
2022/05/11 09:20:50;;;;;;;4.07;2.92;;;;;;;;;;5070654;28;20425;-80
2022/05/11 09:23:26;;;;;;;4.93;3.13;;;;;;;;;;5070599;28;20422;-81
2022/05/11 09:25:58;;;;;;;2.97;2.78;;;;;;;;;;5070552;28;20052;-82
2022/05/11 09:28:28;;;;;;;3.13;2.70;;;;;;;;;;5069177;28;20017;-84
2022/05/11 09:31:02;;;;;;;3.47;2.92;;;;;;;;;;5070481;28;20540;-81
2022/05/11 09:33:32;;;;;;;5.65;3.28;;;;;;;;;;5070204;28;20097;-82
2022/05/11 09:35:59;;;;;;;3.60;2.53;;;;;;;;;;5070296;28;20529;-82
2022/05/11 09:38:28;;;;;;;3.55;2.72;;;;;;;;;;5068966;28;20029;-81
2022/05/11 09:40:57;;;;;;;4.22;2.50;;;;;;;;;;5068923;28;20048;-82
2022/05/11 09:43:31;;;;;;;3.92;1.95;;;;;;;;;;5068980;28;20016;-86
2022/05/11 09:45:57;;;;;;;2.50;2.30;;;;;;;;;;5068877;28;20491;-84
2022/05/11 09:48:24;;;;;;;4.38;2.70;;;;;;;;;;5070310;28;20046;-83
2022/05/11 09:50:54;;;;;;;4.32;2.53;;;;;;;;;;5069000;28;20407;-82
2022/05/11 09:53:22;;;;;;;3.90;2.55;;;;;;;;;;5070908;28;20016;-81
2022/05/11 09:55:48;;;;;;;6.35;2.50;;;;;;;;;;5072607;28;20023;-81
2022/05/11 09:58:25;;;;;;;6.50;2.60;;;;;;;;;;5072670;28;20048;-80
2022/05/11 10:00:50;;;;;;;2.53;2.33;;;;;;;;;;5072404;28;20089;-80
2022/05/11 10:03:22;;;;;;;6.55;2.67;;;;;;;;;;5073194;28;20495;-80
2022/05/11 10:05:50;;;;;;;3.67;2.60;;;;;;;;;;5072554;28;20510;-82
2022/05/11 10:08:25;;;;;;;2.60;2.40;;;;;;;;;;5073027;28;20466;-79
2022/05/11 10:10:56;;;;;;;6.22;2.38;;;;;;;;;;5070572;28;20005;-82
2022/05/11 10:13:24;;;;;;;3.70;2.42;;;;;;;;;;5071087;28;20028;-81
2022/05/11 10:21:53;;;;;;;5.90;2.78;;;;;;;;;;5070272;28;20111;-80
2022/05/11 10:24:37;;;;;;;2.30;2.03;;;;;;;;;;5070057;28;20063;-81
2022/05/11 10:27:05;;;;;;;2.30;2.10;;;;;;;;;;5069664;28;20044;-84
2022/05/11 10:29:41;;;;;;;3.20;2.20;;;;;;;;;;5069676;28;20491;-81
2022/05/11 10:32:14;;;;;;;2.90;2.25;;;;;;;;;;5069766;28;20016;-80
2022/05/11 10:34:55;;;;;;;2.60;1.92;;;;;;;;;;5069618;28;20410;-85
2022/05/11 10:37:23;;;;;;;2.50;1.73;;;;;;;;;;5071069;28;20021;-82
2022/05/11 10:40:07;;;;;;;2.95;1.90;;;;;;;;;;5072460;28;20161;-81
2022/05/11 10:42:35;;;;;;;3.22;2.35;;;;;;;;;;5074070;28;20052;-81
2022/05/11 10:45:09;;;;;;;2.63;1.83;;;;;;;;;;5076204;28;20111;-83
2022/05/11 10:47:34;;;;;;;5.93;2.17;;;;;;;;;;5075796;28;20035;-81
2022/05/11 10:50:32;;;;;;;2.22;1.92;;;;;;;;;;5070113;28;20454;-80
2022/05/11 10:53:01;;;;;;;1.65;1.48;;;;;;;;;;5055916;28;20059;-83
2022/05/11 10:55:26;;;;;;;2.10;1.85;;;;;;;;;;5067446;28;20085;-82
2022/05/11 10:58:07;;;;;;;5.75;1.90;;;;;;;;;;5068785;28;20044;-81
2022/05/11 11:00:36;;;;;;;2.22;2.03;;;;;;;;;;5068903;28;20123;-80
2022/05/11 11:03:04;;;;;;;6.00;1.67;;;;;;;;;;5068949;28;20044;-82
2022/05/11 11:05:36;;;;;;;2.80;1.60;;;;;;;;;;5068910;28;20078;-79
2022/05/11 11:08:04;;;;;;;2.45;1.98;;;;;;;;;;5069013;28;20108;-80
2022/05/11 11:10:40;;;;;;;1.25;1.15;;;;;;;;;;5068945;28;20024;-82
2022/05/11 11:13:24;;;;;;;2.50;1.83;;;;;;;;;;5067479;28;20468;-80
2022/05/11 11:15:51;;;;;;;1.63;1.52;;;;;;;;;;5068852;28;20158;-81
2022/05/11 11:18:19;;;;;;;1.83;1.73;;;;;;;;;;5068799;28;20502;-86
2022/05/11 11:20:46;;;;;;;3.70;1.98;;;;;;;;;;5068773;28;20025;-82
2022/05/11 11:23:15;;;;;;;2.05;1.80;;;;;;;;;;5068710;28;20039;-80
2022/05/11 11:25:52;;;;;;;2.17;1.95;;;;;;;;;;5071584;28;20035;-80
2022/05/11 11:28:25;;;;;;;2.63;1.73;;;;;;;;;;5072812;28;20032;-81
2022/05/11 11:31:12;;;;;;;1.52;1.42;;;;;;;;;;5072708;28;20103;-81
2022/05/11 11:33:39;;;;;;;2.67;2.00;;;;;;;;;;5067375;28;20540;-80
2022/05/11 11:36:23;;;;;;;2.45;2.25;;;;;;;;;;5071235;28;20075;-80
2022/05/11 11:38:51;;;;;;;2.67;1.90;;;;;;;;;;5072583;28;20048;-81
2022/05/11 11:41:30;;;;;;;1.88;1.70;;;;;;;;;;5071282;28;20025;-80
2022/05/11 11:44:26;;;;;;;2.20;1.85;;;;;;;;;;5072399;28;20013;-80
2022/05/11 11:46:52;;;;;;;2.88;1.98;;;;;;;;;;5072419;28;20464;-81
2022/05/11 11:49:21;;;;;;;1.65;1.55;;;;;;;;;;5072367;28;20020;-82
2022/05/11 11:51:53;;;;;;;2.15;2.00;;;;;;;;;;5072335;28;20054;-80
2022/05/11 11:54:46;;;;;;;3.28;2.05;;;;;;;;;;5072236;28;20487;-80
2022/05/11 11:57:23;;;;;;;3.70;1.67;;;;;;;;;;5071996;28;20031;-80
2022/05/11 11:59:49;;;;;;;1.45;1.23;;;;;;;;;;5071949;28;20067;-81
2022/05/11 12:02:15;;;;;;;2.42;1.88;;;;;;;;;;5072108;28;20029;-81
2022/05/11 12:04:44;;;;;;;4.88;1.80;;;;;;;;;;5071956;28;20028;-81
2022/05/11 12:15:43;;;;;;;2.10;1.80;;;;;;;;;;5072164;28;20142;-82
2022/05/11 12:18:22;;;;;;;1.60;1.50;;;;;;;;;;5071959;28;20100;-81
2022/05/11 12:20:48;;;;;;;2.15;1.73;;;;;;;;;;5070492;28;20033;-83
2022/05/11 12:23:18;;;;;;;2.42;1.80;;;;;;;;;;5071696;28;20031;-82
2022/05/11 12:25:50;;;;;;;1.83;1.70;;;;;;;;;;5071762;28;20036;-81
2022/05/11 12:28:28;;;;;;;4.35;1.98;;;;;;;;;;5071758;28;20411;-80
2022/05/11 12:30:54;;;;;;;3.40;2.05;;;;;;;;;;5071528;28;20556;-83
2022/05/11 12:33:28;;;;;;;2.85;1.90;;;;;;;;;;5071485;28;20025;-83
2022/05/11 12:35:54;;;;;;;1.58;1.45;;;;;;;;;;5070210;28;20027;-81
2022/05/11 12:38:33;;;;;;;1.40;1.30;;;;;;;;;;5071423;28;20065;-82
2022/05/11 12:41:00;;;;;;;1.67;1.57;;;;;;;;;;5070124;28;20529;-82
2022/05/11 12:43:30;;;;;;;2.25;2.10;;;;;;;;;;5069973;28;20021;-81
2022/05/11 12:45:59;;;;;;;2.13;1.85;;;;;;;;;;5071423;28;20059;-82
2022/05/11 12:48:35;;;;;;;4.28;1.70;;;;;;;;;;5071295;28;20033;-81
2022/05/11 12:51:08;;;;;;;3.33;1.60;;;;;;;;;;5071369;28;20400;-81
2022/05/11 12:53:47;;;;;;;1.70;1.60;;;;;;;;;;5071242;28;20028;-82
2022/05/11 12:56:32;;;;;;;2.17;1.97;;;;;;;;;;5071340;28;20020;-83
2022/05/11 12:59:05;;;;;;;1.80;1.60;;;;;;;;;;5070887;28;20438;-80
2022/05/11 13:01:33;;;;;;;1.98;1.88;;;;;;;;;;5071224;28;20028;-80
2022/05/11 13:04:00;;;;;;;2.60;2.40;;;;;;;;;;5069696;28;20028;-80
2022/05/11 13:06:32;;;;;;;3.58;2.42;;;;;;;;;;5071093;28;20035;-81
2022/05/11 13:09:05;;;;;;;2.60;2.03;;;;;;;;;;5070896;28;20021;-80
2022/05/11 13:11:31;;;;;;;4.47;2.33;;;;;;;;;;5070992;28;20608;-82
2022/05/11 13:13:57;;;;;;;4.20;2.10;;;;;;;;;;5069413;28;20139;-81
2022/05/11 13:16:25;;;;;;;2.30;2.10;;;;;;;;;;5069520;28;20085;-80
2022/05/11 13:18:57;;;;;;;3.08;1.95;;;;;;;;;;5052721;28;20033;-81
2022/05/11 13:21:35;;;;;;;2.70;2.15;;;;;;;;;;5069313;28;20061;-80
2022/05/11 13:24:01;;;;;;;2.22;2.03;;;;;;;;;;5069409;28;20012;-80
2022/05/11 13:26:35;;;;;;;5.95;2.20;;;;;;;;;;5069360;28;20027;-80
2022/05/11 13:29:09;;;;;;;2.28;2.00;;;;;;;;;;5070374;28;20048;-80
2022/05/11 13:31:35;;;;;;;5.28;1.98;;;;;;;;;;5070487;28;20008;-78
2022/05/11 13:34:01;;;;;;;7.40;2.17;;;;;;;;;;5070401;28;20013;-81
2022/05/11 13:36:26;;;;;;;1.90;1.80;;;;;;;;;;5070415;28;20017;-80
2022/05/11 13:38:51;;;;;;;2.92;2.50;;;;;;;;;;5068888;28;20409;-79
2022/05/11 13:41:20;;;;;;;2.35;2.15;;;;;;;;;;5070130;28;20035;-81
2022/05/11 13:43:51;;;;;;;3.45;2.40;;;;;;;;;;5070244;28;20020;-79
2022/05/11 13:49:40;;;;;;;3.55;2.13;;;;;;;;;;5069039;28;20039;-79
2022/05/11 13:52:08;;;;;;;3.78;2.03;;;;;;;;;;5070148;28;20028;-80
2022/05/11 13:54:34;;;;;;;5.20;2.50;;;;;;;;;;5069909;28;20107;-80
2022/05/11 13:57:03;;;;;;;4.90;2.10;;;;;;;;;;5069964;28;20665;-80
2022/05/11 13:59:29;;;;;;;2.22;2.03;;;;;;;;;;5069635;28;20052;-80
2022/05/11 14:01:55;;;;;;;3.35;2.30;;;;;;;;;;5069802;28;20029;-80
2022/05/11 14:04:27;;;;;;;3.50;1.90;;;;;;;;;;5069848;28;20012;-80
2022/05/11 14:06:59;;;;;;;2.30;1.98;;;;;;;;;;5069696;28;20061;-80
2022/05/11 14:09:25;;;;;;;2.60;2.33;;;;;;;;;;5069711;28;20197;-81
2022/05/11 14:11:50;;;;;;;2.08;1.80;;;;;;;;;;5068409;28;20539;-81
2022/05/11 14:14:16;;;;;;;5.18;2.30;;;;;;;;;;5069656;28;20483;-80
2022/05/11 14:16:41;;;;;;;2.30;1.88;;;;;;;;;;5069385;28;20413;-80
2022/05/11 14:19:07;;;;;;;2.05;1.90;;;;;;;;;;5069491;28;20057;-83
2022/05/11 14:21:34;;;;;;;4.32;2.15;;;;;;;;;;5068122;28;20395;-82
2022/05/11 14:24:00;;;;;;;2.10;2.00;;;;;;;;;;5068127;28;20034;-81
2022/05/11 14:26:25;;;;;;;2.28;2.10;;;;;;;;;;5069569;28;20040;-80
2022/05/11 14:28:51;;;;;;;2.38;2.17;;;;;;;;;;5068172;28;20077;-80
2022/05/11 14:31:17;;;;;;;6.45;2.22;;;;;;;;;;5068074;28;20052;-81
2022/05/11 14:33:43;;;;;;;1.77;1.67;;;;;;;;;;5069483;28;20449;-80
2022/05/11 14:36:09;;;;;;;2.65;2.00;;;;;;;;;;5069223;28;20024;-81
2022/05/11 14:38:35;;;;;;;8.35;2.15;;;;;;;;;;5069242;28;20021;-81
2022/05/11 14:41:00;;;;;;;4.00;2.25;;;;;;;;;;5069449;28;20032;-81
2022/05/11 14:43:26;;;;;;;2.60;2.40;;;;;;;;;;5069356;28;20033;-81
2022/05/11 14:45:54;;;;;;;2.30;2.10;;;;;;;;;;5069531;28;20028;-81
2022/05/11 14:48:23;;;;;;;8.98;2.60;;;;;;;;;;5069199;28;20032;-82
2022/05/11 14:50:49;;;;;;;3.28;2.22;;;;;;;;;;5069360;28;20048;-81
2022/05/11 14:53:14;;;;;;;5.47;2.58;;;;;;;;;;5069150;28;20024;-81
2022/05/11 14:55:40;;;;;;;2.35;2.15;;;;;;;;;;5069319;28;20452;-81
2022/05/11 15:03:33;;;;;;;3.30;2.65;;;;;;;;;;5069032;28;20103;-80
2022/05/11 15:05:59;;;;;;;3.25;2.63;;;;;;;;;;5068937;28;20111;-81
2022/05/11 15:08:25;;;;;;;3.35;2.40;;;;;;;;;;5068975;28;20020;-81
2022/05/11 15:13:30;;;;;;;3.45;2.55;;;;;;;;;;5068901;28;20056;-82
2022/05/11 15:13:36;;;;;;;3.80;2.58;;;;;;;;;;5068427;28;20454;-81
2022/05/11 15:16:01;;;;;;;2.63;2.33;;;;;;;;;;5070384;28;20024;-81
2022/05/11 15:18:27;;;;;;;4.32;2.88;;;;;;;;;;5069716;28;20091;-81
2022/05/11 15:20:53;;;;;;;8.93;2.88;;;;;;;;;;5069022;28;20708;-81
2022/05/11 15:23:18;;;;;;;3.50;2.50;;;;;;;;;;5067378;28;20021;-81
2022/05/11 15:25:44;;;;;;;5.57;2.67;;;;;;;;;;5068644;28;20029;-80
2022/05/11 15:28:10;;;;;;;3.50;2.80;;;;;;;;;;5067282;28;20035;-81
2022/05/11 15:30:36;;;;;;;3.65;2.70;;;;;;;;;;5068641;28;20043;-81
2022/05/11 15:33:02;;;;;;;2.78;2.58;;;;;;;;;;5068546;28;20025;-79
2022/05/11 15:35:29;;;;;;;3.10;2.40;;;;;;;;;;5068626;28;20028;-81